createdAt,value
2022-12-12T00:01:32.127Z,98690.00
2022-12-12T00:03:05.988Z,98695.00
2022-12-12T00:04:40.562Z,98679.00
2022-12-12T00:06:13.803Z,98689.00
2022-12-12T00:07:47.247Z,98686.00
2022-12-12T00:09:20.493Z,98686.00
2022-12-12T00:10:53.621Z,98695.00
2022-12-12T00:12:27.138Z,98692.00
2022-12-12T00:14:00.410Z,98679.00
2022-12-12T00:15:34.533Z,98692.00
2022-12-12T00:17:07.616Z,98693.00
2022-12-12T00:18:41.370Z,98699.00
2022-12-12T00:20:15.956Z,98696.00
2022-12-12T00:21:49.756Z,98694.00
2022-12-12T00:23:23.377Z,98699.00
2022-12-12T00:24:56.701Z,98699.00
2022-12-12T00:26:33.185Z,98703.00
2022-12-12T00:28:06.363Z,98709.00
2022-12-12T00:29:39.581Z,98705.00
2022-12-12T00:31:13.012Z,98700.00
2022-12-12T00:32:46.182Z,98699.00
2022-12-12T00:34:19.397Z,98707.00
2022-12-12T00:35:55.848Z,98696.00
2022-12-12T00:37:29.226Z,98703.00
2022-12-12T00:39:02.393Z,98709.00
2022-12-12T00:40:35.642Z,98697.00
2022-12-12T00:42:09.373Z,98706.00
2022-12-12T00:43:41.530Z,98706.00
2022-12-12T00:45:14.911Z,98709.00
2022-12-12T00:46:48.452Z,98711.00
2022-12-12T00:48:22.515Z,98715.00
2022-12-12T00:49:56.559Z,98707.00
2022-12-12T00:51:32.068Z,98714.00
2022-12-12T00:53:05.645Z,98711.00
2022-12-12T00:54:38.776Z,98699.00
2022-12-12T00:56:12.198Z,98719.00
2022-12-12T00:57:45.477Z,98710.00
2022-12-12T00:59:19.556Z,98716.00
2022-12-12T01:00:54.011Z,98708.00
2022-12-12T01:02:28.491Z,98709.00
2022-12-12T01:04:04.663Z,98712.00
2022-12-12T01:05:37.838Z,98716.00
2022-12-12T01:07:12.781Z,98717.00
2022-12-12T01:08:46.000Z,98721.00
2022-12-12T01:10:19.658Z,98717.00
2022-12-12T01:11:52.872Z,98722.00
2022-12-12T01:13:25.925Z,98712.00
2022-12-12T01:14:59.308Z,98719.00
2022-12-12T01:16:33.312Z,98714.00
2022-12-12T01:18:06.586Z,98723.00
2022-12-12T01:19:39.884Z,98722.00
2022-12-12T01:21:18.523Z,98725.00
2022-12-12T01:22:53.176Z,98715.00
2022-12-12T01:24:26.576Z,98732.00
2022-12-12T01:26:03.150Z,98724.00
2022-12-12T01:27:36.349Z,98726.00
2022-12-12T01:29:09.493Z,98737.00
2022-12-12T01:30:42.776Z,98729.00
2022-12-12T01:32:16.194Z,98730.00
2022-12-12T01:33:49.819Z,98729.00
2022-12-12T01:35:24.356Z,98733.00
2022-12-12T01:36:57.755Z,98731.00
2022-12-12T01:38:32.437Z,98741.00
2022-12-12T01:40:09.221Z,98735.00
2022-12-12T01:41:43.749Z,98735.00
2022-12-12T01:43:19.981Z,98742.00
2022-12-12T01:44:53.550Z,98736.00
2022-12-12T01:46:40.373Z,98729.00
2022-12-12T01:48:13.482Z,98736.00
2022-12-12T01:49:53.692Z,98741.00
2022-12-12T01:51:29.318Z,98748.00
2022-12-12T01:53:02.560Z,98736.00
2022-12-12T01:54:44.778Z,98743.00
2022-12-12T01:56:20.791Z,98737.00
2022-12-12T01:57:55.817Z,98740.00
2022-12-12T01:59:29.447Z,98738.00
2022-12-12T02:01:02.406Z,98740.00
2022-12-12T02:02:39.265Z,98743.00
2022-12-12T02:04:12.899Z,98746.00
2022-12-12T02:05:53.122Z,98735.00
2022-12-12T02:07:27.191Z,98739.00
2022-12-12T02:09:06.125Z,98743.00
2022-12-12T02:10:40.783Z,98747.00
2022-12-12T02:12:15.764Z,98747.00
2022-12-12T02:13:51.657Z,98751.00
2022-12-12T02:15:29.969Z,98748.00
2022-12-12T02:17:39.632Z,98745.00
2022-12-12T02:19:53.672Z,98751.00
2022-12-12T02:21:36.418Z,98753.00
2022-12-12T02:24:01.292Z,98752.00
2022-12-12T02:26:25.410Z,98749.00
2022-12-12T02:28:47.652Z,98749.00
2022-12-12T02:30:24.065Z,98754.00
2022-12-12T02:32:07.241Z,98740.00
2022-12-12T02:33:52.102Z,98756.00
2022-12-12T02:35:38.633Z,98749.00
2022-12-12T02:37:22.777Z,98751.00
2022-12-12T02:39:07.688Z,98749.00
2022-12-12T02:40:57.504Z,98753.00
2022-12-12T02:42:43.155Z,98752.00
2022-12-12T02:44:27.985Z,98763.00
2022-12-12T02:46:08.998Z,98747.00
2022-12-12T02:47:48.966Z,98758.00
2022-12-12T02:49:29.743Z,98742.00
2022-12-12T02:51:07.672Z,98738.00
2022-12-12T02:52:43.662Z,98748.00
2022-12-12T02:54:20.475Z,98746.00
2022-12-12T02:56:04.496Z,98760.00
2022-12-12T02:57:41.519Z,98760.00
2022-12-12T02:59:22.857Z,98755.00
2022-12-12T03:01:14.249Z,98754.00
2022-12-12T03:03:34.371Z,98762.00
2022-12-12T03:05:47.782Z,98764.00
2022-12-12T03:07:48.869Z,98756.00
2022-12-12T03:09:39.133Z,98759.00
2022-12-12T03:11:16.272Z,98761.00
2022-12-12T03:13:02.779Z,98753.00
2022-12-12T03:14:51.363Z,98767.00
2022-12-12T03:16:30.521Z,98752.00
2022-12-12T03:18:21.210Z,98761.00
2022-12-12T03:20:03.832Z,98761.00
2022-12-12T03:21:47.855Z,98757.00
2022-12-12T03:23:29.312Z,98761.00
2022-12-12T03:25:10.943Z,98756.00
2022-12-12T03:26:49.656Z,98756.00
2022-12-12T03:28:30.557Z,98757.00
2022-12-12T03:30:08.027Z,98758.00
2022-12-12T03:31:47.857Z,98758.00
2022-12-12T03:33:31.036Z,98756.00
2022-12-12T03:35:13.709Z,98756.00
2022-12-12T03:36:55.267Z,98752.00
2022-12-12T03:38:34.866Z,98754.00
2022-12-12T03:40:14.880Z,98752.00
2022-12-12T03:41:57.920Z,98746.00
2022-12-12T03:43:35.160Z,98749.00
2022-12-12T03:45:15.259Z,98751.00
2022-12-12T03:46:55.900Z,98748.00
2022-12-12T03:48:34.490Z,98742.00
2022-12-12T03:50:14.523Z,98751.00
2022-12-12T03:51:55.828Z,98749.00
2022-12-12T03:53:37.034Z,98749.00
2022-12-12T03:55:13.369Z,98740.00
2022-12-12T03:56:54.744Z,98742.00
2022-12-12T03:58:34.041Z,98752.00
2022-12-12T04:00:13.719Z,98741.00
2022-12-12T04:01:56.701Z,98749.00
2022-12-12T04:03:41.589Z,98751.00
2022-12-12T04:05:21.188Z,98753.00
2022-12-12T04:07:03.179Z,98750.00
2022-12-12T04:09:00.783Z,98758.00
2022-12-12T04:11:00.576Z,98753.00
2022-12-12T04:13:01.013Z,98763.00
2022-12-12T04:15:10.220Z,98759.00
2022-12-12T04:16:47.483Z,98754.00
2022-12-12T04:18:39.395Z,98756.00
2022-12-12T04:20:42.892Z,98766.00
2022-12-12T04:22:41.560Z,98761.00
2022-12-12T04:24:27.508Z,98767.00
2022-12-12T04:26:33.190Z,98778.00
2022-12-12T04:28:07.540Z,98772.00
2022-12-12T04:29:49.622Z,98785.00
2022-12-12T04:31:27.017Z,98774.00
2022-12-12T04:33:09.024Z,98782.00
2022-12-12T04:34:49.481Z,98778.00
2022-12-12T04:36:25.646Z,98786.00
2022-12-12T04:38:04.386Z,98769.00
2022-12-12T04:39:41.914Z,98779.00
2022-12-12T04:41:18.242Z,98781.00
2022-12-12T04:42:57.651Z,98788.00
2022-12-12T04:44:34.502Z,98782.00
2022-12-12T04:46:12.741Z,98786.00
2022-12-12T04:47:51.286Z,98793.00
2022-12-12T04:49:29.577Z,98798.00
2022-12-12T04:51:04.711Z,98788.00
2022-12-12T04:52:40.559Z,98785.00
2022-12-12T04:54:22.386Z,98784.00
2022-12-12T04:56:00.513Z,98791.00
2022-12-12T04:57:41.535Z,98795.00
2022-12-12T04:59:14.815Z,98785.00
2022-12-12T05:00:58.530Z,98791.00
2022-12-12T05:02:39.042Z,98788.00
2022-12-12T05:04:19.802Z,98776.00
2022-12-12T05:05:58.963Z,98778.00
2022-12-12T05:07:40.312Z,98792.00
2022-12-12T05:09:17.357Z,98794.00
2022-12-12T05:10:55.698Z,98797.00
2022-12-12T05:12:29.121Z,98797.00
2022-12-12T05:14:02.338Z,98791.00
2022-12-12T05:15:39.192Z,98797.00
2022-12-12T05:17:24.467Z,98785.00
2022-12-12T05:18:57.878Z,98799.00
2022-12-12T05:20:31.157Z,98794.00
2022-12-12T05:22:04.339Z,98804.00
2022-12-12T05:23:38.817Z,98795.00
2022-12-12T05:25:12.488Z,98799.00
2022-12-12T05:26:45.928Z,98794.00
2022-12-12T05:28:19.022Z,98793.00
2022-12-12T05:29:52.078Z,98803.00
2022-12-12T05:31:25.636Z,98804.00
2022-12-12T05:32:58.888Z,98799.00
2022-12-12T05:34:32.420Z,98796.00
2022-12-12T05:36:06.274Z,98794.00
2022-12-12T05:37:45.527Z,98795.00
2022-12-12T05:39:24.292Z,98783.00
2022-12-12T05:40:58.170Z,98784.00
2022-12-12T05:42:31.623Z,98785.00
2022-12-12T05:44:04.710Z,98784.00
2022-12-12T05:45:38.018Z,98792.00
2022-12-12T05:47:11.223Z,98800.00
2022-12-12T05:48:44.420Z,98798.00
2022-12-12T05:50:17.637Z,98807.00
2022-12-12T05:51:50.770Z,98804.00
2022-12-12T05:53:24.510Z,98802.00
2022-12-12T05:54:59.048Z,98808.00
2022-12-12T05:56:32.145Z,98805.00
2022-12-12T05:58:05.621Z,98811.00
2022-12-12T05:59:38.869Z,98807.00
2022-12-12T06:01:12.192Z,98798.00
2022-12-12T06:02:45.440Z,98800.00
2022-12-12T06:04:18.607Z,98802.00
2022-12-12T06:05:51.810Z,98816.00
2022-12-12T06:07:24.991Z,98804.00
2022-12-12T06:08:58.161Z,98795.00
2022-12-12T06:10:33.736Z,98807.00
2022-12-12T06:12:07.188Z,98807.00
2022-12-12T06:13:40.602Z,98821.00
2022-12-12T06:15:14.013Z,98817.00
2022-12-12T06:16:47.358Z,98808.00
2022-12-12T06:18:20.462Z,98811.00
2022-12-12T06:19:54.961Z,98821.00
2022-12-12T06:21:28.369Z,98821.00
2022-12-12T06:23:01.590Z,98821.00
2022-12-12T06:24:35.463Z,98821.00
2022-12-12T06:26:13.622Z,98815.00
2022-12-12T06:27:46.872Z,98818.00
2022-12-12T06:29:20.004Z,98817.00
2022-12-12T06:30:53.283Z,98822.00
2022-12-12T06:32:26.654Z,98819.00
2022-12-12T06:33:59.785Z,98818.00
2022-12-12T06:35:32.925Z,98825.00
2022-12-12T06:37:10.660Z,98822.00
2022-12-12T06:38:47.220Z,98833.00
2022-12-12T06:40:20.603Z,98830.00
2022-12-12T06:41:55.418Z,98832.00
2022-12-12T06:43:28.653Z,98843.00
2022-12-12T06:45:01.822Z,98843.00
2022-12-12T06:46:34.965Z,98832.00
2022-12-12T06:48:08.181Z,98836.00
2022-12-12T06:49:41.213Z,98830.00
2022-12-12T06:51:18.109Z,98837.00
2022-12-12T06:52:51.124Z,98840.00
2022-12-12T06:54:24.440Z,98837.00
2022-12-12T06:55:57.500Z,98839.00
2022-12-12T06:57:41.900Z,98834.00
2022-12-12T06:59:15.380Z,98837.00
2022-12-12T07:00:53.020Z,98841.00
2022-12-12T07:02:30.021Z,98843.00
2022-12-12T07:04:03.593Z,98831.00
2022-12-12T07:05:36.808Z,98839.00
2022-12-12T07:07:10.197Z,98830.00
2022-12-12T07:08:43.773Z,98833.00
2022-12-12T07:10:21.173Z,98821.00
2022-12-12T07:11:54.593Z,98837.00
2022-12-12T07:13:29.221Z,98834.00
2022-12-12T07:15:02.441Z,98827.00
2022-12-12T07:16:36.142Z,98834.00
2022-12-12T07:18:09.220Z,98836.00
2022-12-12T07:19:42.379Z,98829.00
2022-12-12T07:21:18.896Z,98840.00
2022-12-12T07:22:52.454Z,98835.00
2022-12-12T07:24:25.523Z,98839.00
2022-12-12T07:25:58.707Z,98828.00
2022-12-12T07:27:32.018Z,98840.00
2022-12-12T07:29:06.561Z,98842.00
2022-12-12T07:30:41.925Z,98845.00
2022-12-12T07:32:15.008Z,98843.00
2022-12-12T07:33:49.044Z,98844.00
2022-12-12T07:35:23.442Z,98847.00
2022-12-12T07:37:02.587Z,98847.00
2022-12-12T07:38:38.145Z,98845.00
2022-12-12T07:40:12.268Z,98844.00
2022-12-12T07:41:45.825Z,98852.00
2022-12-12T07:43:19.839Z,98858.00
2022-12-12T07:44:54.630Z,98853.00
2022-12-12T07:46:28.110Z,98871.00
2022-12-12T07:48:01.238Z,98865.00
2022-12-12T07:49:34.320Z,98866.00
2022-12-12T07:51:07.463Z,98875.00
2022-12-12T07:52:40.860Z,98879.00
2022-12-12T07:54:13.975Z,98876.00
2022-12-12T07:55:47.133Z,98876.00
2022-12-12T07:57:20.225Z,98882.00
2022-12-12T07:58:55.366Z,98884.00
2022-12-12T08:00:29.865Z,98879.00
2022-12-12T08:02:03.068Z,98876.00
2022-12-12T08:03:36.216Z,98876.00
2022-12-12T08:05:10.531Z,98881.00
2022-12-12T08:06:43.881Z,98873.00
2022-12-12T08:08:17.066Z,98878.00
2022-12-12T08:09:50.308Z,98880.00
2022-12-12T08:11:26.223Z,98871.00
2022-12-12T08:13:00.193Z,98881.00
2022-12-12T08:14:33.325Z,98887.00
2022-12-12T08:16:14.944Z,98880.00
2022-12-12T08:17:48.297Z,98888.00
2022-12-12T08:19:21.491Z,98889.00
2022-12-12T08:20:54.726Z,98885.00
2022-12-12T08:22:27.810Z,98894.00
2022-12-12T08:24:03.314Z,98893.00
2022-12-12T08:25:36.927Z,98901.00
2022-12-12T08:27:15.315Z,98901.00
2022-12-12T08:28:49.851Z,98904.00
2022-12-12T08:30:22.894Z,98896.00
2022-12-12T08:31:57.382Z,98896.00
2022-12-12T08:33:31.724Z,98893.00
2022-12-12T08:35:05.839Z,98907.00
2022-12-12T08:36:39.473Z,98903.00
2022-12-12T08:38:13.311Z,98904.00
2022-12-12T08:39:49.274Z,98910.00
2022-12-12T08:41:25.014Z,98907.00
2022-12-12T08:42:58.108Z,98904.00
2022-12-12T08:44:31.236Z,98901.00
2022-12-12T08:46:05.555Z,98910.00
2022-12-12T08:47:40.088Z,98905.00
2022-12-12T08:49:13.665Z,98905.00
2022-12-12T08:50:46.745Z,98912.00
2022-12-12T08:52:19.904Z,98908.00
2022-12-12T08:53:54.762Z,98904.00
2022-12-12T08:55:28.037Z,98911.00
2022-12-12T08:57:01.085Z,98918.00
2022-12-12T08:58:34.396Z,98913.00
2022-12-12T09:00:09.323Z,98913.00
2022-12-12T09:01:45.482Z,98913.00
2022-12-12T09:03:24.781Z,98919.00
2022-12-12T09:05:02.051Z,98921.00
2022-12-12T09:06:35.493Z,98909.00
2022-12-12T09:08:08.634Z,98917.00
2022-12-12T09:09:41.782Z,98917.00
2022-12-12T09:11:16.090Z,98915.00
2022-12-12T09:12:49.155Z,98908.00
2022-12-12T09:14:22.498Z,98916.00
2022-12-12T09:15:55.653Z,98922.00
2022-12-12T09:17:28.724Z,98915.00
2022-12-12T09:19:03.677Z,98920.00
2022-12-12T09:20:37.004Z,98923.00
2022-12-12T09:22:10.499Z,98920.00
2022-12-12T09:23:43.670Z,98927.00
2022-12-12T09:25:16.969Z,98928.00
2022-12-12T09:26:50.192Z,98926.00
2022-12-12T09:28:27.357Z,98928.00
2022-12-12T09:30:00.520Z,98929.00
2022-12-12T09:31:33.695Z,98929.00
2022-12-12T09:33:07.288Z,98939.00
2022-12-12T09:34:41.776Z,98942.00
2022-12-12T09:36:15.591Z,98930.00
2022-12-12T09:37:48.657Z,98941.00
2022-12-12T09:39:21.720Z,98929.00
2022-12-12T09:40:58.798Z,98940.00
2022-12-12T09:42:42.801Z,98935.00
2022-12-12T09:44:20.442Z,98927.00
2022-12-12T09:45:54.153Z,98936.00
2022-12-12T09:47:38.203Z,98933.00
2022-12-12T09:49:18.209Z,98947.00
2022-12-12T09:50:53.008Z,98940.00
2022-12-12T09:52:33.064Z,98951.00
2022-12-12T09:54:07.102Z,98937.00
2022-12-12T09:55:48.837Z,98939.00
2022-12-12T09:57:31.526Z,98946.00
2022-12-12T09:59:16.062Z,98934.00
2022-12-12T10:00:58.842Z,98935.00
2022-12-12T10:03:14.862Z,98937.00
2022-12-12T10:05:01.300Z,98937.00
2022-12-12T10:06:42.517Z,98943.00
2022-12-12T10:08:24.918Z,98933.00
2022-12-12T10:10:13.932Z,98932.00
2022-12-12T10:11:51.320Z,98936.00
2022-12-12T10:13:30.578Z,98938.00
2022-12-12T10:15:09.290Z,98936.00
2022-12-12T10:16:43.913Z,98937.00
2022-12-12T10:18:25.884Z,98941.00
2022-12-12T10:20:05.700Z,98935.00
2022-12-12T10:21:41.511Z,98943.00
2022-12-12T10:23:23.572Z,98941.00
2022-12-12T10:25:08.099Z,98942.00
2022-12-12T10:26:43.001Z,98935.00
2022-12-12T10:28:19.754Z,98937.00
2022-12-12T10:29:55.088Z,98936.00
2022-12-12T10:31:44.336Z,98940.00
2022-12-12T10:33:31.848Z,98935.00
2022-12-12T10:35:24.487Z,98935.00
2022-12-12T10:37:21.779Z,98929.00
2022-12-12T10:39:11.397Z,98922.00
2022-12-12T10:40:59.499Z,98930.00
2022-12-12T10:42:42.152Z,98932.00
2022-12-12T10:44:32.725Z,98927.00
2022-12-12T10:46:25.630Z,98934.00
2022-12-12T10:47:59.429Z,98931.00
2022-12-12T10:49:34.853Z,98932.00
2022-12-12T10:51:13.601Z,98939.00
2022-12-12T10:52:48.079Z,98922.00
2022-12-12T10:54:24.957Z,98935.00
2022-12-12T10:56:03.611Z,98927.00
2022-12-12T10:57:37.287Z,98926.00
2022-12-12T10:59:23.089Z,98922.00
2022-12-12T11:01:04.929Z,98928.00
2022-12-12T11:02:40.941Z,98922.00
2022-12-12T11:04:16.372Z,98916.00
2022-12-12T11:05:50.128Z,98922.00
2022-12-12T11:07:24.334Z,98914.00
2022-12-12T11:09:07.344Z,98913.00
2022-12-12T11:10:40.547Z,98912.00
2022-12-12T11:12:17.334Z,98916.00
2022-12-12T11:13:54.494Z,98914.00
2022-12-12T11:15:39.722Z,98908.00
2022-12-12T11:17:23.831Z,98909.00
2022-12-12T11:19:06.028Z,98911.00
2022-12-12T11:20:47.576Z,98914.00
2022-12-12T11:22:21.386Z,98916.00
2022-12-12T11:23:59.248Z,98907.00
2022-12-12T11:25:34.961Z,98912.00
2022-12-12T11:27:08.933Z,98918.00
2022-12-12T11:28:46.444Z,98912.00
2022-12-12T11:30:29.047Z,98907.00
2022-12-12T11:32:04.543Z,98915.00
2022-12-12T11:33:44.223Z,98910.00
2022-12-12T11:35:28.491Z,98910.00
2022-12-12T11:37:01.699Z,98907.00
2022-12-12T11:38:42.072Z,98899.00
2022-12-12T11:40:25.494Z,98901.00
2022-12-12T11:42:01.700Z,98905.00
2022-12-12T11:43:38.561Z,98900.00
2022-12-12T11:45:23.803Z,98902.00
2022-12-12T11:46:57.240Z,98901.00
2022-12-12T11:48:42.015Z,98896.00
2022-12-12T11:50:22.545Z,98894.00
2022-12-12T11:51:56.166Z,98882.00
2022-12-12T11:53:29.603Z,98891.00
2022-12-12T11:55:04.601Z,98885.00
2022-12-12T11:56:48.168Z,98877.00
2022-12-12T11:58:28.794Z,98886.00
2022-12-12T12:00:16.151Z,98880.00
2022-12-12T12:02:06.085Z,98877.00
2022-12-12T12:04:11.040Z,98875.00
2022-12-12T12:06:02.246Z,98881.00
2022-12-12T12:08:04.592Z,98872.00
2022-12-12T12:09:50.194Z,98876.00
2022-12-12T12:11:32.652Z,98880.00
2022-12-12T12:13:28.836Z,98872.00
2022-12-12T12:15:26.361Z,98873.00
2022-12-12T12:17:12.146Z,98860.00
2022-12-12T12:19:03.380Z,98871.00
2022-12-12T12:21:11.012Z,98878.00
2022-12-12T12:23:00.816Z,98874.00
2022-12-12T12:25:06.329Z,98866.00
2022-12-12T12:26:50.436Z,98875.00
2022-12-12T12:28:52.119Z,98871.00
2022-12-12T12:30:28.147Z,98874.00
2022-12-12T12:32:17.543Z,98883.00
2022-12-12T12:34:09.944Z,98881.00
2022-12-12T12:36:02.063Z,98877.00
2022-12-12T12:37:51.430Z,98877.00
2022-12-12T12:39:52.049Z,98882.00
2022-12-12T12:41:48.272Z,98892.00
2022-12-12T12:43:44.241Z,98886.00
2022-12-12T12:45:25.754Z,98886.00
2022-12-12T12:47:15.236Z,98881.00
2022-12-12T12:48:55.882Z,98881.00
2022-12-12T12:50:35.314Z,98878.00
2022-12-12T12:52:16.032Z,98889.00
2022-12-12T12:53:56.896Z,98882.00
2022-12-12T12:55:38.045Z,98886.00
2022-12-12T12:57:14.501Z,98884.00
2022-12-12T12:58:53.957Z,98881.00
2022-12-12T13:00:31.978Z,98884.00
2022-12-12T13:02:26.544Z,98880.00
2022-12-12T13:04:09.003Z,98886.00
2022-12-12T13:05:47.392Z,98880.00
2022-12-12T13:07:34.872Z,98877.00
2022-12-12T13:09:28.128Z,98881.00
2022-12-12T13:11:08.685Z,98879.00
2022-12-12T13:12:47.766Z,98883.00
2022-12-12T13:14:37.885Z,98873.00
2022-12-12T13:16:16.255Z,98865.00
2022-12-12T13:18:01.245Z,98862.00
2022-12-12T13:19:41.628Z,98860.00
2022-12-12T13:21:26.070Z,98856.00
2022-12-12T13:23:15.742Z,98857.00
2022-12-12T13:24:59.991Z,98850.00
2022-12-12T13:26:49.584Z,98859.00
2022-12-12T13:28:26.999Z,98859.00
2022-12-12T13:30:07.562Z,98859.00
2022-12-12T13:32:09.812Z,98864.00
2022-12-12T13:33:47.340Z,98863.00
2022-12-12T13:35:31.104Z,98863.00
2022-12-12T13:37:07.777Z,98860.00
2022-12-12T13:38:48.809Z,98860.00
2022-12-12T13:40:28.594Z,98864.00
2022-12-12T13:42:05.347Z,98869.00
2022-12-12T13:43:47.465Z,98861.00
2022-12-12T13:45:45.269Z,98860.00
2022-12-12T13:48:02.882Z,98866.00
2022-12-12T13:49:48.441Z,98860.00
2022-12-12T13:51:40.653Z,98875.00
2022-12-12T13:53:21.308Z,98870.00
2022-12-12T13:55:18.924Z,98854.00
2022-12-12T13:57:13.226Z,98860.00
2022-12-12T13:58:46.310Z,98865.00
2022-12-12T14:00:21.133Z,98867.00
2022-12-12T14:01:59.311Z,98866.00
2022-12-12T14:03:32.614Z,98864.00
2022-12-12T14:05:13.950Z,98875.00
2022-12-12T14:06:47.338Z,98864.00
2022-12-12T14:08:27.933Z,98862.00
2022-12-12T14:10:18.556Z,98870.00
2022-12-12T14:11:52.419Z,98879.00
2022-12-12T14:13:42.988Z,98871.00
2022-12-12T14:15:28.904Z,98880.00
2022-12-12T14:17:04.661Z,98878.00
2022-12-12T14:18:54.223Z,98878.00
2022-12-12T14:20:32.757Z,98879.00
2022-12-12T14:22:06.186Z,98880.00
2022-12-12T14:23:42.746Z,98883.00
2022-12-12T14:25:34.977Z,98884.00
2022-12-12T14:27:09.847Z,98874.00
2022-12-12T14:28:42.934Z,98881.00
2022-12-12T14:30:19.626Z,98877.00
2022-12-12T14:32:13.125Z,98877.00
2022-12-12T14:34:11.179Z,98872.00
2022-12-12T14:35:54.084Z,98877.00
2022-12-12T14:37:51.552Z,98879.00
2022-12-12T14:39:49.490Z,98882.00
2022-12-12T14:41:30.926Z,98885.00
2022-12-12T14:43:19.324Z,98879.00
2022-12-12T14:44:55.402Z,98883.00
2022-12-12T14:46:31.565Z,98898.00
2022-12-12T14:48:21.212Z,98890.00
2022-12-12T14:50:10.046Z,98892.00
2022-12-12T14:51:46.464Z,98888.00
2022-12-12T14:53:23.488Z,98898.00
2022-12-12T14:54:56.813Z,98887.00
2022-12-12T14:56:36.665Z,98897.00
2022-12-12T14:58:10.254Z,98897.00
2022-12-12T14:59:44.297Z,98901.00
2022-12-12T15:01:30.602Z,98886.00
2022-12-12T15:03:06.355Z,98889.00
2022-12-12T15:04:44.952Z,98885.00
2022-12-12T15:06:31.949Z,98882.00
2022-12-12T15:08:05.146Z,98887.00
2022-12-12T15:09:41.412Z,98883.00
2022-12-12T15:11:16.351Z,98898.00
2022-12-12T15:12:49.669Z,98894.00
2022-12-12T15:14:26.788Z,98894.00
2022-12-12T15:16:00.105Z,98895.00
2022-12-12T15:17:43.506Z,98909.00
2022-12-12T15:19:22.879Z,98903.00
2022-12-12T15:20:59.360Z,98903.00
2022-12-12T15:22:36.115Z,98902.00
2022-12-12T15:24:21.725Z,98892.00
2022-12-12T15:25:57.084Z,98895.00
2022-12-12T15:27:33.475Z,98901.00
2022-12-12T15:29:06.626Z,98898.00
2022-12-12T15:30:43.844Z,98896.00
2022-12-12T15:32:24.941Z,98909.00
2022-12-12T15:33:58.385Z,98906.00
2022-12-12T15:35:32.245Z,98903.00
2022-12-12T15:37:30.754Z,98910.00
2022-12-12T15:39:15.506Z,98919.00
2022-12-12T15:40:52.680Z,98912.00
2022-12-12T15:42:26.446Z,98900.00
2022-12-12T15:43:59.783Z,98910.00
2022-12-12T15:45:37.590Z,98909.00
2022-12-12T15:47:15.631Z,98914.00
2022-12-12T15:48:51.332Z,98910.00
2022-12-12T15:50:29.851Z,98917.00
2022-12-12T15:52:12.693Z,98916.00
2022-12-12T15:53:52.440Z,98924.00
2022-12-12T15:55:25.756Z,98925.00
2022-12-12T15:56:58.867Z,98916.00
2022-12-12T15:58:36.056Z,98916.00
2022-12-12T16:00:30.269Z,98911.00
2022-12-12T16:02:27.197Z,98915.00
2022-12-12T16:04:02.679Z,98920.00
2022-12-12T16:05:38.077Z,98912.00
2022-12-12T16:07:22.398Z,98920.00
2022-12-12T16:09:08.860Z,98935.00
2022-12-12T16:10:53.774Z,98926.00
2022-12-12T16:12:56.564Z,98922.00
2022-12-12T16:14:43.229Z,98923.00
2022-12-12T16:16:43.516Z,98923.00
2022-12-12T16:18:21.798Z,98915.00
2022-12-12T16:19:58.073Z,98924.00
2022-12-12T16:21:31.966Z,98919.00
2022-12-12T16:23:28.218Z,98929.00
2022-12-12T16:25:21.127Z,98930.00
2022-12-12T16:26:58.793Z,98925.00
2022-12-12T16:28:32.238Z,98917.00
2022-12-12T16:30:07.350Z,98928.00
2022-12-12T16:31:40.593Z,98926.00
2022-12-12T16:33:23.789Z,98926.00
2022-12-12T16:34:57.032Z,98932.00
2022-12-12T16:36:30.469Z,98931.00
2022-12-12T16:38:14.517Z,98932.00
2022-12-12T16:39:47.778Z,98930.00
2022-12-12T16:41:22.846Z,98932.00
2022-12-12T16:43:09.467Z,98933.00
2022-12-12T16:44:44.957Z,98943.00
2022-12-12T16:46:21.160Z,98939.00
2022-12-12T16:47:55.170Z,98935.00
2022-12-12T16:49:28.290Z,98933.00
2022-12-12T16:51:05.322Z,98934.00
2022-12-12T16:52:38.581Z,98931.00
2022-12-12T16:54:19.104Z,98939.00
2022-12-12T16:55:53.772Z,98940.00
2022-12-12T16:57:29.699Z,98941.00
2022-12-12T16:59:02.814Z,98945.00
2022-12-12T17:00:35.938Z,98945.00
2022-12-12T17:02:20.530Z,98947.00
2022-12-12T17:03:53.675Z,98951.00
2022-12-12T17:05:28.735Z,98948.00
2022-12-12T17:07:01.818Z,98945.00
2022-12-12T17:08:35.135Z,98948.00
2022-12-12T17:10:11.398Z,98951.00
2022-12-12T17:11:45.491Z,98949.00
2022-12-12T17:13:23.463Z,98952.00
2022-12-12T17:14:56.543Z,98954.00
2022-12-12T17:16:29.876Z,98950.00
2022-12-12T17:18:04.102Z,98958.00
2022-12-12T17:19:37.322Z,98952.00
2022-12-12T17:21:10.583Z,98952.00
2022-12-12T17:22:44.532Z,98950.00
2022-12-12T17:24:17.754Z,98944.00
2022-12-12T17:25:51.048Z,98948.00
2022-12-12T17:27:24.160Z,98954.00
2022-12-12T17:28:58.649Z,98955.00
2022-12-12T17:30:32.867Z,98952.00
2022-12-12T17:32:06.600Z,98954.00
2022-12-12T17:33:50.028Z,98949.00
2022-12-12T17:35:23.929Z,98954.00
2022-12-12T17:36:57.079Z,98952.00
2022-12-12T17:38:31.161Z,98947.00
2022-12-12T17:40:07.162Z,98948.00
2022-12-12T17:41:40.297Z,98951.00
2022-12-12T17:43:13.385Z,98948.00
2022-12-12T17:44:47.825Z,98945.00
2022-12-12T17:46:21.119Z,98951.00
2022-12-12T17:47:54.241Z,98949.00
2022-12-12T17:49:27.325Z,98948.00
2022-12-12T17:51:03.122Z,98944.00
2022-12-12T17:52:36.232Z,98938.00
2022-12-12T17:54:10.349Z,98946.00
2022-12-12T17:55:53.007Z,98948.00
2022-12-12T17:57:30.644Z,98942.00
2022-12-12T17:59:05.974Z,98946.00
2022-12-12T18:00:40.512Z,98953.00
2022-12-12T18:02:13.665Z,98956.00
2022-12-12T18:03:47.965Z,98948.00
2022-12-12T18:05:21.153Z,98954.00
2022-12-12T18:06:54.709Z,98954.00
2022-12-12T18:08:27.890Z,98941.00
2022-12-12T18:10:00.969Z,98942.00
2022-12-12T18:11:35.912Z,98947.00
2022-12-12T18:13:11.942Z,98941.00
2022-12-12T18:14:45.245Z,98943.00
2022-12-12T18:16:20.264Z,98945.00
2022-12-12T18:17:53.407Z,98937.00
2022-12-12T18:19:29.006Z,98943.00
2022-12-12T18:21:05.440Z,98943.00
2022-12-12T18:22:39.269Z,98946.00
2022-12-12T18:24:12.780Z,98944.00
2022-12-12T18:25:46.508Z,98942.00
2022-12-12T18:27:19.744Z,98942.00
2022-12-12T18:28:57.837Z,98944.00
2022-12-12T18:30:31.181Z,98942.00
2022-12-12T18:32:06.243Z,98945.00
2022-12-12T18:33:39.652Z,98941.00
2022-12-12T18:35:13.438Z,98939.00
2022-12-12T18:36:46.593Z,98937.00
2022-12-12T18:38:20.302Z,98945.00
2022-12-12T18:39:56.261Z,98935.00
2022-12-12T18:41:31.517Z,98939.00
2022-12-12T18:43:04.493Z,98935.00
2022-12-12T18:44:37.797Z,98940.00
2022-12-12T18:46:14.311Z,98944.00
2022-12-12T18:47:48.828Z,98932.00
2022-12-12T18:49:21.983Z,98928.00
2022-12-12T18:50:55.202Z,98930.00
2022-12-12T18:52:28.333Z,98936.00
2022-12-12T18:54:09.409Z,98931.00
2022-12-12T18:55:45.521Z,98931.00
2022-12-12T18:57:19.770Z,98932.00
2022-12-12T18:58:54.498Z,98939.00
2022-12-12T19:00:28.714Z,98933.00
2022-12-12T19:02:01.938Z,98939.00
2022-12-12T19:03:38.239Z,98935.00
2022-12-12T19:05:13.289Z,98934.00
2022-12-12T19:06:46.555Z,98925.00
2022-12-12T19:08:20.181Z,98942.00
2022-12-12T19:09:53.456Z,98935.00
2022-12-12T19:11:26.854Z,98940.00
2022-12-12T19:13:00.041Z,98947.00
2022-12-12T19:14:59.689Z,98933.00
2022-12-12T19:16:26.521Z,98950.00
2022-12-12T19:17:59.716Z,98937.00
2022-12-12T19:19:34.210Z,98946.00
2022-12-12T19:21:09.374Z,98942.00